sensor_id;sensor_type;location;lat;lon;timestamp;pressure;altitude;pressure_sealevel;temperature;humidity
23363;BME280;11853;48.080;11.960;2023-02-18T00:01:26;95622.28;;;11.95;88.95
23363;BME280;11853;48.080;11.960;2023-02-18T00:03:54;95625.91;;;11.94;88.72
23363;BME280;11853;48.080;11.960;2023-02-18T00:06:22;95629.41;;;11.95;88.74
23363;BME280;11853;48.080;11.960;2023-02-18T00:08:48;95627.19;;;11.90;89.08
23363;BME280;11853;48.080;11.960;2023-02-18T00:11:16;95630.81;;;11.89;89.12
23363;BME280;11853;48.080;11.960;2023-02-18T00:13:42;95635.00;;;11.82;89.89
23363;BME280;11853;48.080;11.960;2023-02-18T00:16:10;95619.63;;;11.76;90.28
23363;BME280;11853;48.080;11.960;2023-02-18T00:18:37;95619.63;;;11.76;90.11
23363;BME280;11853;48.080;11.960;2023-02-18T00:21:04;95618.63;;;11.77;90.37
23363;BME280;11853;48.080;11.960;2023-02-18T00:23:30;95615.25;;;11.75;90.33
23363;BME280;11853;48.080;11.960;2023-02-18T00:26:08;95623.53;;;11.72;90.80
23363;BME280;11853;48.080;11.960;2023-02-18T00:28:34;95626.59;;;11.67;91.33
23363;BME280;11853;48.080;11.960;2023-02-18T00:31:06;95631.91;;;11.67;91.60
23363;BME280;11853;48.080;11.960;2023-02-18T00:33:32;95626.88;;;11.64;91.89
23363;BME280;11853;48.080;11.960;2023-02-18T00:36:03;95624.91;;;11.66;91.78
23363;BME280;11853;48.080;11.960;2023-02-18T00:38:29;95632.19;;;11.64;91.83
23363;BME280;11853;48.080;11.960;2023-02-18T00:40:55;95631.63;;;11.61;92.48
23363;BME280;11853;48.080;11.960;2023-02-18T00:43:20;95630.25;;;11.57;92.89
23363;BME280;11853;48.080;11.960;2023-02-18T00:45:46;95624.22;;;11.55;93.29
23363;BME280;11853;48.080;11.960;2023-02-18T00:48:12;95620.56;;;11.56;93.43
23363;BME280;11853;48.080;11.960;2023-02-18T00:50:37;95623.94;;;11.58;93.38
23363;BME280;11853;48.080;11.960;2023-02-18T00:53:03;95618.06;;;11.54;93.52
23363;BME280;11853;48.080;11.960;2023-02-18T00:55:29;95609.56;;;11.50;94.02
23363;BME280;11853;48.080;11.960;2023-02-18T00:57:54;95613.88;;;11.52;94.06
23363;BME280;11853;48.080;11.960;2023-02-18T01:00:20;95604.53;;;11.47;93.91
23363;BME280;11853;48.080;11.960;2023-02-18T01:02:46;95603.94;;;11.44;94.82
23363;BME280;11853;48.080;11.960;2023-02-18T01:05:12;95611.50;;;11.48;94.52
23363;BME280;11853;48.080;11.960;2023-02-18T01:07:38;95609.56;;;11.50;94.90
23363;BME280;11853;48.080;11.960;2023-02-18T01:10:04;95610.66;;;11.48;95.11
23363;BME280;11853;48.080;11.960;2023-02-18T01:12:29;95615.81;;;11.49;94.93
23363;BME280;11853;48.080;11.960;2023-02-18T01:14:55;95603.66;;;11.47;95.11
23363;BME280;11853;48.080;11.960;2023-02-18T01:17:21;95610.94;;;11.55;95.04
23363;BME280;11853;48.080;11.960;2023-02-18T01:19:46;95609.00;;;11.57;94.52
23363;BME280;11853;48.080;11.960;2023-02-18T01:22:12;95605.34;;;11.58;95.03
23363;BME280;11853;48.080;11.960;2023-02-18T01:24:38;95607.00;;;11.59;95.32
23363;BME280;11853;48.080;11.960;2023-02-18T01:27:04;95609.00;;;11.57;95.46
23363;BME280;11853;48.080;11.960;2023-02-18T01:29:29;95613.31;;;11.58;96.20
23363;BME280;11853;48.080;11.960;2023-02-18T01:31:55;95605.34;;;11.58;96.57
23363;BME280;11853;48.080;11.960;2023-02-18T01:34:21;95609.81;;;11.67;96.20
23363;BME280;11853;48.080;11.960;2023-02-18T01:36:46;95605.34;;;11.58;97.00
23363;BME280;11853;48.080;11.960;2023-02-18T01:39:12;95599.75;;;11.51;97.66
23363;BME280;11853;48.080;11.960;2023-02-18T01:41:38;95600.59;;;11.52;98.04
23363;BME280;11853;48.080;11.960;2023-02-18T01:44:14;95602.41;;;11.51;98.62
23363;BME280;11853;48.080;11.960;2023-02-18T01:46:39;95592.34;;;11.55;97.99
23363;BME280;11853;48.080;11.960;2023-02-18T01:49:06;95582.53;;;11.55;97.68
23363;BME280;11853;48.080;11.960;2023-02-18T01:51:38;95584.25;;;11.56;97.98
23363;BME280;11853;48.080;11.960;2023-02-18T01:56:49;95586.88;;;11.46;97.80
23363;BME280;11853;48.080;11.960;2023-02-18T01:59:26;95594.56;;;11.49;98.20
23363;BME280;11853;48.080;11.960;2023-02-18T02:01:53;95589.41;;;11.48;98.22
23363;BME280;11853;48.080;11.960;2023-02-18T02:04:20;95584.38;;;11.45;98.63
23363;BME280;11853;48.080;11.960;2023-02-18T02:06:46;95585.50;;;11.42;99.10
23363;BME280;11853;48.080;11.960;2023-02-18T02:09:14;95575.81;;;11.41;99.18
23363;BME280;11853;48.080;11.960;2023-02-18T02:20:36;95569.69;;;11.41;100.00
23363;BME280;11853;48.080;11.960;2023-02-18T02:26:17;95558.22;;;11.40;100.00
23363;BME280;11853;48.080;11.960;2023-02-18T02:37:25;95555.28;;;11.43;100.00
23363;BME280;11853;48.080;11.960;2023-02-18T02:45:42;95546.47;;;11.43;99.92
23363;BME280;11853;48.080;11.960;2023-02-18T02:51:03;95553.75;;;11.50;99.63
23363;BME280;11853;48.080;11.960;2023-02-18T02:53:33;95549.94;;;11.53;99.49
23363;BME280;11853;48.080;11.960;2023-02-18T02:55:59;95533.31;;;11.51;99.93
23363;BME280;11853;48.080;11.960;2023-02-18T02:58:25;95522.53;;;11.53;99.62
23363;BME280;11853;48.080;11.960;2023-02-18T03:07:18;95530.22;;;11.56;100.00
23363;BME280;11853;48.080;11.960;2023-02-18T03:09:54;95532.88;;;11.56;100.00
23363;BME280;11853;48.080;11.960;2023-02-18T03:15:42;95533.47;;;11.59;100.00
23363;BME280;11853;48.080;11.960;2023-02-18T03:18:17;95530.22;;;11.56;100.00
23363;BME280;11853;48.080;11.960;2023-02-18T03:20:55;95524.78;;;11.57;100.00
23363;BME280;11853;48.080;11.960;2023-02-18T03:23:28;95529.25;;;11.57;100.00
23363;BME280;11853;48.080;11.960;2023-02-18T03:25:58;95519.19;;;11.60;100.00
23363;BME280;11853;48.080;11.960;2023-02-18T03:28:27;95527.03;;;11.62;100.00
23363;BME280;11853;48.080;11.960;2023-02-18T03:31:04;95525.88;;;11.64;100.00
23363;BME280;11853;48.080;11.960;2023-02-18T03:34:00;95536.66;;;11.63;100.00
23363;BME280;11853;48.080;11.960;2023-02-18T03:36:27;95535.25;;;11.59;100.00
23363;BME280;11853;48.080;11.960;2023-02-18T03:38:59;95529.56;;;11.54;100.00
23363;BME280;11853;48.080;11.960;2023-02-18T03:41:26;95529.69;;;11.62;100.00
23363;BME280;11853;48.080;11.960;2023-02-18T03:43:53;95532.59;;;11.59;100.00
23363;BME280;11853;48.080;11.960;2023-02-18T03:46:22;95521.41;;;11.55;100.00
23363;BME280;11853;48.080;11.960;2023-02-18T03:48:48;95521.13;;;11.58;100.00
23363;BME280;11853;48.080;11.960;2023-02-18T03:51:14;95525.78;;;11.56;100.00
23363;BME280;11853;48.080;11.960;2023-02-18T03:53:39;95518.63;;;11.57;100.00
23363;BME280;11853;48.080;11.960;2023-02-18T03:56:05;95525.63;;;11.58;100.00
23363;BME280;11853;48.080;11.960;2023-02-18T03:58:31;95518.91;;;11.54;100.00
23363;BME280;11853;48.080;11.960;2023-02-18T04:00:57;95520.19;;;11.59;100.00
23363;BME280;11853;48.080;11.960;2023-02-18T04:03:22;95516.25;;;11.54;100.00
23363;BME280;11853;48.080;11.960;2023-02-18T04:05:48;95507.59;;;11.52;100.00
23363;BME280;11853;48.080;11.960;2023-02-18T04:08:14;95511.25;;;11.50;100.00
23363;BME280;11853;48.080;11.960;2023-02-18T04:10:39;95515.13;;;11.46;100.00
23363;BME280;11853;48.080;11.960;2023-02-18T04:13:05;95521.72;;;11.42;100.00
23363;BME280;11853;48.080;11.960;2023-02-18T04:15:31;95522.41;;;11.44;100.00
23363;BME280;11853;48.080;11.960;2023-02-18T04:17:56;95523.25;;;11.45;100.00
23363;BME280;11853;48.080;11.960;2023-02-18T04:20:22;95523.38;;;11.43;100.00
23363;BME280;11853;48.080;11.960;2023-02-18T04:22:48;95530.53;;;11.43;100.00
23363;BME280;11853;48.080;11.960;2023-02-18T04:25:14;95527.03;;;11.42;100.00
23363;BME280;11853;48.080;11.960;2023-02-18T04:27:39;95533.59;;;11.38;100.00
23363;BME280;11853;48.080;11.960;2023-02-18T04:30:05;95535.97;;;11.41;100.00
23363;BME280;11853;48.080;11.960;2023-02-18T04:32:31;95535.56;;;11.36;100.00
23363;BME280;11853;48.080;11.960;2023-02-18T04:34:57;95529.97;;;11.39;100.00
23363;BME280;11853;48.080;11.960;2023-02-18T04:37:23;95527.31;;;11.39;100.00
23363;BME280;11853;48.080;11.960;2023-02-18T04:39:48;95530.09;;;11.38;100.00
23363;BME280;11853;48.080;11.960;2023-02-18T04:42:14;95534.03;;;11.34;100.00
23363;BME280;11853;48.080;11.960;2023-02-18T04:44:40;95522.13;;;11.38;100.00
23363;BME280;11853;48.080;11.960;2023-02-18T04:47:06;95532.06;;;11.36;100.00
23363;BME280;11853;48.080;11.960;2023-02-18T04:49:32;95535.28;;;11.30;100.00
23363;BME280;11853;48.080;11.960;2023-02-18T04:51:58;95530.41;;;11.25;100.00
23363;BME280;11853;48.080;11.960;2023-02-18T04:54:23;95526.19;;;11.32;100.00
23363;BME280;11853;48.080;11.960;2023-02-18T04:56:49;95528.44;;;11.27;100.00
23363;BME280;11853;48.080;11.960;2023-02-18T04:59:15;95517.81;;;11.27;100.00
23363;BME280;11853;48.080;11.960;2023-02-18T05:01:40;95533.59;;;11.38;100.00
23363;BME280;11853;48.080;11.960;2023-02-18T05:04:06;95532.78;;;11.28;100.00
23363;BME280;11853;48.080;11.960;2023-02-18T05:06:31;95534.59;;;11.27;100.00
23363;BME280;11853;48.080;11.960;2023-02-18T05:08:57;95535.44;;;11.28;100.00
23363;BME280;11853;48.080;11.960;2023-02-18T05:11:22;95530.41;;;11.25;100.00
23363;BME280;11853;48.080;11.960;2023-02-18T05:13:48;95533.63;;;11.28;100.00
23363;BME280;11853;48.080;11.960;2023-02-18T05:16:13;95536.13;;;11.30;100.00
23363;BME280;11853;48.080;11.960;2023-02-18T05:18:39;95532.78;;;11.28;100.00
23363;BME280;11853;48.080;11.960;2023-02-18T05:21:05;95525.66;;;11.28;100.00
23363;BME280;11853;48.080;11.960;2023-02-18T05:23:31;95534.44;;;11.29;100.00
23363;BME280;11853;48.080;11.960;2023-02-18T05:25:56;95520.19;;;11.20;100.00
23363;BME280;11853;48.080;11.960;2023-02-18T05:28:22;95528.13;;;11.30;100.00
23363;BME280;11853;48.080;11.960;2023-02-18T05:30:48;95534.03;;;11.24;100.00
23363;BME280;11853;48.080;11.960;2023-02-18T05:33:13;95541.03;;;11.25;100.00
23363;BME280;11853;48.080;11.960;2023-02-18T05:35:39;95529.13;;;11.29;100.00
23363;BME280;11853;48.080;11.960;2023-02-18T05:38:05;95536.00;;;11.22;100.00
23363;BME280;11853;48.080;11.960;2023-02-18T05:40:30;95530.69;;;11.22;100.00
23363;BME280;11853;48.080;11.960;2023-02-18T05:42:56;95535.72;;;11.25;100.00
23363;BME280;11853;48.080;11.960;2023-02-18T05:45:23;95532.06;;;11.26;100.00
23363;BME280;11853;48.080;11.960;2023-02-18T05:47:48;95535.72;;;11.25;100.00
23363;BME280;11853;48.080;11.960;2023-02-18T05:50:14;95519.50;;;11.28;100.00
23363;BME280;11853;48.080;11.960;2023-02-18T05:52:39;95537.25;;;11.27;100.00
23363;BME280;11853;48.080;11.960;2023-02-18T05:55:05;95532.78;;;11.28;100.00
23363;BME280;11853;48.080;11.960;2023-02-18T05:57:31;95534.59;;;11.27;100.00
23363;BME280;11853;48.080;11.960;2023-02-18T05:59:56;95543.25;;;11.30;100.00
23363;BME280;11853;48.080;11.960;2023-02-18T06:02:22;95538.78;;;11.30;100.00
23363;BME280;11853;48.080;11.960;2023-02-18T06:04:47;95539.06;;;11.27;100.00
23363;BME280;11853;48.080;11.960;2023-02-18T06:07:13;95532.91;;;11.26;100.00
23363;BME280;11853;48.080;11.960;2023-02-18T06:09:40;95532.63;;;11.30;100.00
23363;BME280;11853;48.080;11.960;2023-02-18T06:12:05;95541.19;;;11.33;100.00
23363;BME280;11853;48.080;11.960;2023-02-18T06:14:31;95530.78;;;11.30;100.00
23363;BME280;11853;48.080;11.960;2023-02-18T06:16:57;95534.72;;;11.26;100.00
23363;BME280;11853;48.080;11.960;2023-02-18T06:19:22;95531.38;;;11.24;100.00
23363;BME280;11853;48.080;11.960;2023-02-18T06:21:48;95531.22;;;11.35;100.00
23363;BME280;11853;48.080;11.960;2023-02-18T06:24:14;95532.22;;;11.34;100.00
23363;BME280;11853;48.080;11.960;2023-02-18T06:26:40;95524.66;;;11.30;100.00
23363;BME280;11853;48.080;11.960;2023-02-18T06:29:06;95536.25;;;11.38;100.00
23363;BME280;11853;48.080;11.960;2023-02-18T06:31:31;95529.41;;;11.36;100.00
23363;BME280;11853;48.080;11.960;2023-02-18T06:33:57;95529.28;;;11.27;100.00
23363;BME280;11853;48.080;11.960;2023-02-18T06:36:22;95527.88;;;11.33;100.00
23363;BME280;11853;48.080;11.960;2023-02-18T06:38:48;95536.00;;;11.32;100.00
23363;BME280;11853;48.080;11.960;2023-02-18T06:41:14;95547.72;;;11.29;100.00
23363;BME280;11853;48.080;11.960;2023-02-18T06:43:40;95538.78;;;11.30;100.00
23363;BME280;11853;48.080;11.960;2023-02-18T06:46:06;95533.03;;;11.35;100.00
23363;BME280;11853;48.080;11.960;2023-02-18T06:48:32;95525.06;;;11.35;100.00
23363;BME280;11853;48.080;11.960;2023-02-18T06:50:58;95539.75;;;11.29;100.00
23363;BME280;11853;48.080;11.960;2023-02-18T06:53:23;95538.09;;;11.28;100.00
23363;BME280;11853;48.080;11.960;2023-02-18T06:55:49;95544.06;;;11.30;100.00
23363;BME280;11853;48.080;11.960;2023-02-18T06:58:16;95543.81;;;11.33;99.94
23363;BME280;11853;48.080;11.960;2023-02-18T07:00:42;95543.94;;;11.32;99.72
23363;BME280;11853;48.080;11.960;2023-02-18T07:03:09;95547.03;;;11.27;99.89
23363;BME280;11853;48.080;11.960;2023-02-18T07:05:35;95546.06;;;11.28;99.44
23363;BME280;11853;48.080;11.960;2023-02-18T07:08:01;95537.09;;;11.29;99.06
23363;BME280;11853;48.080;11.960;2023-02-18T07:10:26;95531.50;;;11.32;98.37
23363;BME280;11853;48.080;11.960;2023-02-18T07:12:52;95529.56;;;11.34;97.84
23363;BME280;11853;48.080;11.960;2023-02-18T07:15:18;95523.13;;;11.37;97.60
23363;BME280;11853;48.080;11.960;2023-02-18T07:17:51;95528.16;;;11.40;96.82
23363;BME280;11853;48.080;11.960;2023-02-18T07:20:19;95535.69;;;11.44;97.30
23363;BME280;11853;48.080;11.960;2023-02-18T07:22:44;95539.88;;;11.47;96.61
23363;BME280;11853;48.080;11.960;2023-02-18T07:25:10;95528.44;;;11.46;95.78
23363;BME280;11853;48.080;11.960;2023-02-18T07:27:36;95531.63;;;11.50;95.15
23363;BME280;11853;48.080;11.960;2023-02-18T07:30:02;95521.16;;;11.48;94.80
23363;BME280;11853;48.080;11.960;2023-02-18T07:32:36;95517.66;;;11.48;93.86
23363;BME280;11853;48.080;11.960;2023-02-18T07:35:04;95523.81;;;11.48;94.41
23363;BME280;11853;48.080;11.960;2023-02-18T07:37:30;95513.31;;;11.47;93.52
23363;BME280;11853;48.080;11.960;2023-02-18T07:39:55;95496.66;;;11.55;92.30
23363;BME280;11853;48.080;11.960;2023-02-18T07:42:21;95516.94;;;11.56;91.99
23363;BME280;11853;48.080;11.960;2023-02-18T07:44:47;95513.88;;;11.60;91.79
23363;BME280;11853;48.080;11.960;2023-02-18T07:47:14;95513.31;;;11.57;91.79
23363;BME280;11853;48.080;11.960;2023-02-18T07:49:42;95508.69;;;11.59;91.42
23363;BME280;11853;48.080;11.960;2023-02-18T07:52:07;95514.56;;;11.62;91.11
23363;BME280;11853;48.080;11.960;2023-02-18T07:54:33;95523.38;;;11.63;90.50
23363;BME280;11853;48.080;11.960;2023-02-18T07:56:59;95508.00;;;11.57;90.77
23363;BME280;11853;48.080;11.960;2023-02-18T07:59:25;95513.75;;;11.62;91.51
23363;BME280;11853;48.080;11.960;2023-02-18T08:01:50;95525.03;;;11.64;91.12
23363;BME280;11853;48.080;11.960;2023-02-18T08:04:16;95506.31;;;11.65;90.83
23363;BME280;11853;48.080;11.960;2023-02-18T08:06:44;95523.38;;;11.63;91.37
23363;BME280;11853;48.080;11.960;2023-02-18T08:09:14;95515.00;;;11.58;91.72
23363;BME280;11853;48.080;11.960;2023-02-18T08:11:39;95515.00;;;11.58;91.26
23363;BME280;11853;48.080;11.960;2023-02-18T08:14:05;95527.56;;;11.56;91.48
23363;BME280;11853;48.080;11.960;2023-02-18T08:16:31;95510.38;;;11.60;91.58
23363;BME280;11853;48.080;11.960;2023-02-18T08:18:57;95516.53;;;11.60;91.73
23363;BME280;11853;48.080;11.960;2023-02-18T08:21:24;95516.94;;;11.56;92.14
23363;BME280;11853;48.080;11.960;2023-02-18T08:23:51;95507.56;;;11.61;91.91
23363;BME280;11853;48.080;11.960;2023-02-18T08:26:17;95502.69;;;11.57;91.92
23363;BME280;11853;48.080;11.960;2023-02-18T08:28:44;95507.84;;;11.58;92.33
23363;BME280;11853;48.080;11.960;2023-02-18T08:31:18;95509.66;;;11.58;92.55
23363;BME280;11853;48.080;11.960;2023-02-18T08:33:44;95509.38;;;11.61;92.13
23363;BME280;11853;48.080;11.960;2023-02-18T08:36:10;95497.63;;;11.63;91.95
23363;BME280;11853;48.080;11.960;2023-02-18T08:38:35;95509.09;;;11.64;91.70
23363;BME280;11853;48.080;11.960;2023-02-18T08:41:03;95489.53;;;11.65;91.73
23363;BME280;11853;48.080;11.960;2023-02-18T08:43:29;95496.50;;;11.66;92.75
23363;BME280;11853;48.080;11.960;2023-02-18T08:45:56;95499.56;;;11.81;92.83
23363;BME280;11853;48.080;11.960;2023-02-18T08:48:23;95496.22;;;11.88;94.43
23363;BME280;11853;48.080;11.960;2023-02-18T08:50:49;95493.50;;;12.08;93.66
23363;BME280;11853;48.080;11.960;2023-02-18T08:53:15;95487.41;;;12.15;92.82
23363;BME280;11853;48.080;11.960;2023-02-18T08:55:41;95475.75;;;12.26;91.98
23363;BME280;11853;48.080;11.960;2023-02-18T08:58:07;95481.47;;;12.31;91.00
23363;BME280;11853;48.080;11.960;2023-02-18T09:00:32;95479.75;;;12.40;91.90
23363;BME280;11853;48.080;11.960;2023-02-18T09:02:58;95479.59;;;12.42;89.58
23363;BME280;11853;48.080;11.960;2023-02-18T09:05:24;95482.75;;;12.55;89.57
23363;BME280;11853;48.080;11.960;2023-02-18T09:07:49;95489.44;;;12.59;90.89
23363;BME280;11853;48.080;11.960;2023-02-18T09:10:15;95486.22;;;12.65;87.85
23363;BME280;11853;48.080;11.960;2023-02-18T09:12:41;95485.22;;;12.66;86.47
23363;BME280;11853;48.080;11.960;2023-02-18T09:15:07;95478.22;;;12.65;85.77
23363;BME280;11853;48.080;11.960;2023-02-18T09:17:34;95468.94;;;12.69;86.46
23363;BME280;11853;48.080;11.960;2023-02-18T09:19:59;95476.53;;;12.64;86.19
23363;BME280;11853;48.080;11.960;2023-02-18T09:22:25;95460.59;;;12.82;84.43
23363;BME280;11853;48.080;11.960;2023-02-18T09:24:51;95467.88;;;12.98;84.74
23363;BME280;11853;48.080;11.960;2023-02-18T09:27:16;95476.13;;;13.22;88.14
23363;BME280;11853;48.080;11.960;2023-02-18T09:29:42;95479.16;;;13.27;82.39
23363;BME280;11853;48.080;11.960;2023-02-18T09:32:09;95471.25;;;13.36;83.56
23363;BME280;11853;48.080;11.960;2023-02-18T09:34:36;95473.28;;;13.42;81.25
23363;BME280;11853;48.080;11.960;2023-02-18T09:37:02;95476.44;;;13.37;80.18
23363;BME280;11853;48.080;11.960;2023-02-18T09:39:27;95482.44;;;13.39;80.66
23363;BME280;11853;48.080;11.960;2023-02-18T09:42:05;95468.34;;;13.47;81.38
23363;BME280;11853;48.080;11.960;2023-02-18T09:44:35;95463.00;;;13.47;78.94
23363;BME280;11853;48.080;11.960;2023-02-18T09:49:38;95466.16;;;13.42;78.45
23363;BME280;11853;48.080;11.960;2023-02-18T09:52:13;95449.22;;;13.78;77.14
23363;BME280;11853;48.080;11.960;2023-02-18T09:54:40;95451.66;;;13.97;75.83
23363;BME280;11853;48.080;11.960;2023-02-18T09:57:54;95445.94;;;14.18;75.01
23363;BME280;11853;48.080;11.960;2023-02-18T10:00:09;95445.47;;;14.73;73.12
23363;BME280;11853;48.080;11.960;2023-02-18T10:02:40;95437.03;;;15.27;70.14
23363;BME280;11853;48.080;11.960;2023-02-18T10:05:12;95436.03;;;15.44;68.85
23363;BME280;11853;48.080;11.960;2023-02-18T10:07:39;95433.66;;;15.82;68.04
23363;BME280;11853;48.080;11.960;2023-02-18T10:10:32;95424.97;;;15.55;66.79
23363;BME280;11853;48.080;11.960;2023-02-18T10:12:59;95420.97;;;15.60;66.03
23363;BME280;11853;48.080;11.960;2023-02-18T10:15:28;95419.91;;;15.93;65.42
23363;BME280;11853;48.080;11.960;2023-02-18T10:17:58;95415.03;;;16.05;64.67
23363;BME280;11853;48.080;11.960;2023-02-18T10:20:28;95408.66;;;16.14;64.29
23363;BME280;11853;48.080;11.960;2023-02-18T10:22:57;95416.03;;;16.04;65.13
23363;BME280;11853;48.080;11.960;2023-02-18T10:25:23;95404.09;;;16.23;64.67
23363;BME280;11853;48.080;11.960;2023-02-18T10:27:52;95397.28;;;16.83;64.07
23363;BME280;11853;48.080;11.960;2023-02-18T10:30:32;95399.72;;;16.93;61.65
23363;BME280;11853;48.080;11.960;2023-02-18T10:35:53;95395.03;;;16.95;61.09
23363;BME280;11853;48.080;11.960;2023-02-18T10:38:36;95389.38;;;16.89;60.59
23363;BME280;11853;48.080;11.960;2023-02-18T10:51:49;95366.75;;;16.61;60.34
23363;BME280;11853;48.080;11.960;2023-02-18T10:54:16;95359.06;;;16.58;61.23
23363;BME280;11853;48.080;11.960;2023-02-18T10:56:49;95351.50;;;16.61;61.89
23363;BME280;11853;48.080;11.960;2023-02-18T10:59:23;95358.44;;;16.79;61.14
23363;BME280;11853;48.080;11.960;2023-02-18T11:02:16;95337.75;;;17.10;62.14
23363;BME280;11853;48.080;11.960;2023-02-18T11:04:43;95333.66;;;17.38;60.06
23363;BME280;11853;48.080;11.960;2023-02-18T11:07:15;95314.06;;;17.37;59.87
23363;BME280;11853;48.080;11.960;2023-02-18T11:09:57;95313.31;;;17.58;60.51
23363;BME280;11853;48.080;11.960;2023-02-18T11:15:15;95294.19;;;17.61;58.26
23363;BME280;11853;48.080;11.960;2023-02-18T11:17:44;95286.66;;;17.56;57.80
23363;BME280;11853;48.080;11.960;2023-02-18T11:20:34;95281.41;;;17.63;58.39
23363;BME280;11853;48.080;11.960;2023-02-18T11:25:36;95274.09;;;17.57;57.66
23363;BME280;11853;48.080;11.960;2023-02-18T11:28:26;95278.44;;;17.43;56.34
23363;BME280;11853;48.080;11.960;2023-02-18T11:30:55;95274.00;;;17.36;56.59
23363;BME280;11853;48.080;11.960;2023-02-18T11:33:31;95266.41;;;17.24;56.69
23363;BME280;11853;48.080;11.960;2023-02-18T11:36:11;95270.00;;;17.17;57.14
23363;BME280;11853;48.080;11.960;2023-02-18T11:38:44;95272.97;;;17.22;57.13
23363;BME280;11853;48.080;11.960;2023-02-18T11:41:17;95272.13;;;17.21;56.91
23363;BME280;11853;48.080;11.960;2023-02-18T11:43:49;95256.13;;;17.28;56.78
23363;BME280;11853;48.080;11.960;2023-02-18T11:46:22;95262.13;;;17.15;56.13
23363;BME280;11853;48.080;11.960;2023-02-18T11:48:48;95264.53;;;17.10;56.63
23363;BME280;11853;48.080;11.960;2023-02-18T11:51:27;95244.56;;;16.98;56.34
23363;BME280;11853;48.080;11.960;2023-02-18T11:54:01;95259.13;;;16.80;56.56
23363;BME280;11853;48.080;11.960;2023-02-18T11:56:32;95254.47;;;16.74;56.81
23363;BME280;11853;48.080;11.960;2023-02-18T11:58:59;95247.41;;;16.73;57.06
23363;BME280;11853;48.080;11.960;2023-02-18T12:01:50;95242.06;;;16.73;57.05
23363;BME280;11853;48.080;11.960;2023-02-18T12:04:30;95240.81;;;16.61;56.26
23363;BME280;11853;48.080;11.960;2023-02-18T12:07:17;95237.63;;;16.65;56.54
23363;BME280;11853;48.080;11.960;2023-02-18T12:09:50;95223.63;;;16.55;57.14
23363;BME280;11853;48.080;11.960;2023-02-18T12:12:26;95205.69;;;16.56;56.71
23363;BME280;11853;48.080;11.960;2023-02-18T12:14:56;95202.91;;;16.49;56.87
23363;BME280;11853;48.080;11.960;2023-02-18T12:23:21;95188.56;;;16.42;56.87
23363;BME280;11853;48.080;11.960;2023-02-18T12:31:27;95179.06;;;16.39;57.62
23363;BME280;11853;48.080;11.960;2023-02-18T12:34:24;95169.81;;;16.42;57.83
23363;BME280;11853;48.080;11.960;2023-02-18T12:39:45;95156.16;;;16.37;57.87
23363;BME280;11853;48.080;11.960;2023-02-18T13:10:55;95134.56;;;16.15;60.03
23363;BME280;11853;48.080;11.960;2023-02-18T13:16:31;95149.16;;;16.13;58.35
23363;BME280;11853;48.080;11.960;2023-02-18T13:21:33;95137.50;;;16.06;59.36
23363;BME280;11853;48.080;11.960;2023-02-18T13:24:05;95123.56;;;16.10;59.44
23363;BME280;11853;48.080;11.960;2023-02-18T13:26:32;95123.72;;;15.94;56.87
23363;BME280;11853;48.080;11.960;2023-02-18T13:34:56;95119.19;;;15.71;59.15
23363;BME280;11853;48.080;11.960;2023-02-18T13:37:36;95107.38;;;15.58;59.51
23363;BME280;11853;48.080;11.960;2023-02-18T13:40:15;95127.44;;;15.53;59.69
23363;BME280;11853;48.080;11.960;2023-02-18T13:42:43;95115.81;;;15.46;58.56
23363;BME280;11853;48.080;11.960;2023-02-18T13:47:50;95136.22;;;15.39;60.06
23363;BME280;11853;48.080;11.960;2023-02-18T13:52:48;95117.22;;;15.34;60.23
23363;BME280;11853;48.080;11.960;2023-02-18T13:55:19;95107.34;;;15.35;59.53
23363;BME280;11853;48.080;11.960;2023-02-18T13:57:47;95128.59;;;15.28;60.96
23363;BME280;11853;48.080;11.960;2023-02-18T14:00:23;95130.97;;;15.23;61.74
23363;BME280;11853;48.080;11.960;2023-02-18T14:03:00;95129.13;;;15.23;62.59
23363;BME280;11853;48.080;11.960;2023-02-18T14:05:40;95133.44;;;15.24;62.36
23363;BME280;11853;48.080;11.960;2023-02-18T14:08:12;95119.78;;;15.19;62.26
23363;BME280;11853;48.080;11.960;2023-02-18T14:10:38;95123.00;;;15.15;62.76
23363;BME280;11853;48.080;11.960;2023-02-18T14:13:20;95132.84;;;15.14;63.40
23363;BME280;11853;48.080;11.960;2023-02-18T14:15:56;95136.50;;;15.13;64.39
23363;BME280;11853;48.080;11.960;2023-02-18T14:24:03;95131.69;;;15.08;64.68
23363;BME280;11853;48.080;11.960;2023-02-18T14:26:33;95127.34;;;15.07;64.11
23363;BME280;11853;48.080;11.960;2023-02-18T14:29:05;95121.72;;;15.02;64.63
23363;BME280;11853;48.080;11.960;2023-02-18T14:37:03;95156.16;;;14.89;64.69
23363;BME280;11853;48.080;11.960;2023-02-18T14:46:01;95153.88;;;14.61;65.31
23363;BME280;11853;48.080;11.960;2023-02-18T14:51:08;95150.22;;;14.62;65.27
23363;BME280;11853;48.080;11.960;2023-02-18T14:53:41;95147.22;;;14.57;64.15
23363;BME280;11853;48.080;11.960;2023-02-18T14:56:08;95139.53;;;14.46;64.56
23363;BME280;11853;48.080;11.960;2023-02-18T14:58:38;95139.03;;;14.34;64.25
23363;BME280;11853;48.080;11.960;2023-02-18T15:01:21;95141.88;;;14.33;64.95
23363;BME280;11853;48.080;11.960;2023-02-18T15:03:48;95142.19;;;14.38;65.72
23363;BME280;11853;48.080;11.960;2023-02-18T15:08:53;95151.38;;;14.43;65.18
23363;BME280;11853;48.080;11.960;2023-02-18T15:11:21;95153.56;;;14.32;65.01
23363;BME280;11853;48.080;11.960;2023-02-18T15:13:48;95149.38;;;14.21;65.29
23363;BME280;11853;48.080;11.960;2023-02-18T15:16:22;95147.38;;;14.23;64.75
23363;BME280;11853;48.080;11.960;2023-02-18T15:18:56;95162.56;;;14.23;65.17
23363;BME280;11853;48.080;11.960;2023-02-18T15:21:30;95161.22;;;14.10;65.42